createdAt,value
2023-04-28T00:00:36.630Z,6.32
2023-04-28T00:03:06.336Z,6.30
2023-04-28T00:05:33.619Z,6.03
2023-04-28T00:08:03.423Z,5.63
2023-04-28T00:10:31.336Z,7.95
2023-04-28T00:13:00.776Z,6.88
2023-04-28T00:15:29.880Z,7.13
2023-04-28T00:17:56.659Z,7.18
2023-04-28T00:20:23.862Z,6.85
2023-04-28T00:22:53.186Z,7.20
2023-04-28T00:25:20.023Z,7.45
2023-04-28T00:27:49.213Z,6.65
2023-04-28T00:30:18.962Z,7.35
2023-04-28T00:32:47.927Z,7.25
2023-04-28T00:35:14.825Z,7.68
2023-04-28T00:37:42.073Z,7.45
2023-04-28T00:40:10.005Z,7.70
2023-04-28T00:42:36.760Z,6.43
2023-04-28T00:45:07.693Z,7.80
2023-04-28T00:47:35.397Z,7.47
2023-04-28T00:50:06.238Z,7.80
2023-04-28T00:52:33.076Z,8.10
2023-04-28T00:54:59.999Z,8.15
2023-04-28T00:57:27.209Z,7.68
2023-04-28T00:59:57.463Z,8.07
2023-04-28T01:02:24.921Z,7.50
2023-04-28T01:04:52.780Z,8.00
2023-04-28T01:07:19.569Z,7.55
2023-04-28T01:09:48.071Z,8.00
2023-04-28T01:12:15.383Z,7.85
2023-04-28T01:14:42.532Z,6.95
2023-04-28T01:17:10.706Z,7.40
2023-04-28T01:19:40.203Z,8.35
2023-04-28T01:22:07.058Z,7.60
2023-04-28T01:24:34.010Z,7.85
2023-04-28T01:27:01.048Z,7.65
2023-04-28T01:29:28.869Z,8.25
2023-04-28T01:31:57.969Z,7.47
2023-04-28T01:34:24.993Z,8.48
2023-04-28T01:36:52.137Z,7.80
2023-04-28T01:39:19.601Z,7.95
2023-04-28T01:41:46.743Z,8.02
2023-04-28T01:44:13.712Z,7.80
2023-04-28T01:46:40.751Z,7.70
2023-04-28T01:49:08.010Z,7.35
2023-04-28T01:51:38.084Z,7.05
2023-04-28T01:54:04.890Z,7.65
2023-04-28T01:56:33.803Z,7.78
2023-04-28T01:59:00.529Z,7.55
2023-04-28T02:01:27.245Z,7.72
2023-04-28T02:03:56.585Z,8.55
2023-04-28T02:06:23.748Z,8.13
2023-04-28T02:08:53.068Z,7.30
2023-04-28T02:11:22.062Z,8.43
2023-04-28T02:13:48.908Z,7.60
2023-04-28T02:16:16.237Z,7.85
2023-04-28T02:18:43.110Z,7.75
2023-04-28T02:21:13.738Z,9.00
2023-04-28T02:23:43.344Z,7.57
2023-04-28T02:26:13.367Z,8.35
2023-04-28T02:28:45.170Z,7.75
2023-04-28T02:31:13.999Z,7.40
2023-04-28T02:33:42.693Z,8.25
2023-04-28T02:36:12.710Z,7.15
2023-04-28T02:38:41.735Z,8.00
2023-04-28T02:41:11.844Z,8.82
2023-04-28T02:43:38.873Z,8.65
2023-04-28T02:46:06.005Z,9.27
2023-04-28T02:48:37.556Z,8.20
2023-04-28T02:51:04.444Z,8.10
2023-04-28T02:53:31.391Z,8.73
2023-04-28T02:55:58.450Z,8.95
2023-04-28T02:58:27.677Z,8.95
2023-04-28T03:00:57.008Z,9.38
2023-04-28T03:03:23.962Z,8.05
2023-04-28T03:05:53.602Z,8.80
2023-04-28T03:08:23.082Z,9.02
2023-04-28T03:10:50.060Z,8.60
2023-04-28T03:13:16.757Z,8.30
2023-04-28T03:15:43.977Z,8.98
2023-04-28T03:18:10.838Z,8.77
2023-04-28T03:20:37.679Z,8.75
2023-04-28T03:23:04.745Z,8.77
2023-04-28T03:25:31.724Z,8.45
2023-04-28T03:27:58.622Z,9.23
2023-04-28T03:30:25.399Z,9.82
2023-04-28T03:32:52.344Z,10.23
2023-04-28T03:35:19.137Z,9.60
2023-04-28T03:37:45.866Z,9.43
2023-04-28T03:40:12.938Z,8.60
2023-04-28T03:42:39.663Z,9.50
2023-04-28T03:45:07.180Z,9.48
2023-04-28T03:47:36.946Z,9.95
2023-04-28T03:50:03.986Z,9.88
2023-04-28T03:52:33.200Z,9.38
2023-04-28T03:54:59.896Z,9.27
2023-04-28T03:57:26.604Z,10.77
2023-04-28T03:59:53.345Z,9.63
2023-04-28T04:02:20.326Z,10.38
2023-04-28T04:04:47.405Z,11.30
2023-04-28T04:07:14.401Z,9.63
2023-04-28T04:09:41.957Z,10.23
2023-04-28T04:12:08.752Z,10.25
2023-04-28T04:14:35.445Z,11.05
2023-04-28T04:17:02.419Z,11.20
2023-04-28T04:19:29.372Z,10.27
2023-04-28T04:21:56.820Z,10.95
2023-04-28T04:24:23.665Z,10.40
2023-04-28T04:26:50.486Z,11.15
2023-04-28T04:29:17.204Z,10.68
2023-04-28T04:31:45.508Z,10.95
2023-04-28T04:34:12.478Z,11.48
2023-04-28T04:36:39.634Z,10.80
2023-04-28T04:39:06.717Z,11.25
2023-04-28T04:41:36.098Z,11.38
2023-04-28T04:44:02.951Z,11.32
2023-04-28T04:46:34.900Z,11.00
2023-04-28T04:49:01.942Z,11.25
2023-04-28T04:51:28.750Z,13.80
2023-04-28T04:53:55.750Z,12.35
2023-04-28T04:56:23.389Z,12.73
2023-04-28T04:58:52.592Z,12.20
2023-04-28T05:01:25.770Z,12.20
2023-04-28T05:03:53.058Z,12.60
2023-04-28T05:06:36.071Z,13.05
2023-04-28T05:09:03.334Z,11.90
2023-04-28T05:11:38.343Z,13.18
2023-04-28T05:14:09.987Z,12.70
2023-04-28T05:16:37.886Z,12.23
2023-04-28T05:19:05.454Z,12.65
2023-04-28T05:21:33.055Z,11.68
2023-04-28T05:24:03.124Z,13.15
2023-04-28T05:26:34.470Z,11.82
2023-04-28T05:29:01.376Z,12.60
2023-04-28T05:31:29.180Z,11.70
2023-04-28T05:33:56.351Z,12.40
2023-04-28T05:36:24.718Z,12.35
2023-04-28T05:38:51.933Z,11.88
2023-04-28T05:41:18.917Z,13.02
2023-04-28T05:43:51.595Z,12.35
2023-04-28T05:46:29.904Z,11.75
2023-04-28T05:49:03.886Z,12.30
2023-04-28T05:51:31.342Z,12.63
2023-04-28T05:53:58.686Z,12.88
2023-04-28T05:56:30.100Z,12.07
2023-04-28T05:58:59.132Z,11.95
2023-04-28T06:01:26.858Z,12.60
2023-04-28T06:03:56.320Z,12.90
2023-04-28T06:06:23.959Z,12.20
2023-04-28T06:08:50.984Z,12.30
2023-04-28T06:11:22.901Z,11.55
2023-04-28T06:13:52.586Z,12.80
2023-04-28T06:16:24.936Z,11.60
2023-04-28T06:18:51.949Z,11.60
2023-04-28T06:21:21.862Z,12.02
2023-04-28T06:24:03.204Z,11.88
2023-04-28T06:26:35.131Z,11.55
2023-04-28T06:29:02.723Z,11.38
2023-04-28T06:31:30.042Z,11.20
2023-04-28T06:33:57.288Z,11.98
2023-04-28T06:36:27.284Z,11.75
2023-04-28T06:38:58.182Z,11.38
2023-04-28T06:41:34.658Z,12.32
2023-04-28T06:44:01.749Z,11.88
2023-04-28T06:46:31.792Z,11.52
2023-04-28T06:48:59.808Z,11.57
2023-04-28T06:51:27.880Z,11.85
2023-04-28T06:53:55.080Z,13.48
2023-04-28T06:56:22.453Z,12.93
2023-04-28T06:58:49.935Z,12.55
2023-04-28T07:01:17.674Z,14.18
2023-04-28T07:03:47.266Z,13.07
2023-04-28T07:06:18.637Z,12.68
2023-04-28T07:08:45.463Z,12.57
2023-04-28T07:11:12.650Z,13.77
2023-04-28T07:13:39.783Z,12.27
2023-04-28T07:16:10.455Z,12.32
2023-04-28T07:18:38.370Z,12.55
2023-04-28T07:21:05.839Z,12.15
2023-04-28T07:23:36.495Z,11.85
2023-04-28T07:26:05.888Z,11.50
2023-04-28T07:28:32.856Z,11.55
2023-04-28T07:30:59.889Z,11.43
2023-04-28T07:33:26.846Z,11.52
2023-04-28T07:35:56.100Z,11.38
2023-04-28T07:38:23.201Z,11.20
2023-04-28T07:40:58.192Z,12.55
2023-04-28T07:43:28.192Z,12.18
2023-04-28T07:46:02.910Z,11.90
2023-04-28T07:48:36.045Z,11.13
2023-04-28T07:51:02.974Z,11.60
2023-04-28T07:53:29.888Z,12.23
2023-04-28T07:55:59.688Z,12.10
2023-04-28T07:58:29.186Z,11.77
2023-04-28T08:00:58.182Z,11.93
2023-04-28T08:03:25.045Z,12.13
2023-04-28T08:05:51.814Z,12.40
2023-04-28T08:08:18.702Z,11.90
2023-04-28T08:10:45.985Z,12.20
2023-04-28T08:13:12.961Z,12.32
2023-04-28T08:15:41.666Z,12.57
2023-04-28T08:18:08.620Z,11.65
2023-04-28T08:20:37.396Z,11.50
2023-04-28T08:23:04.004Z,11.63
2023-04-28T08:25:30.908Z,11.57
2023-04-28T08:27:57.890Z,11.10
2023-04-28T08:30:24.636Z,11.98
2023-04-28T08:32:51.394Z,10.90
2023-04-28T08:35:19.446Z,10.90
2023-04-28T08:37:46.544Z,11.52
2023-04-28T08:40:16.029Z,11.02
2023-04-28T08:42:45.973Z,9.85
2023-04-28T08:45:16.633Z,10.52
2023-04-28T08:47:50.152Z,11.45
2023-04-28T08:50:24.903Z,11.10
2023-04-28T08:52:53.755Z,11.35
2023-04-28T08:55:25.985Z,11.75
2023-04-28T08:57:55.160Z,11.70
2023-04-28T09:00:22.980Z,11.75
2023-04-28T09:02:51.607Z,13.80
2023-04-28T09:05:19.294Z,11.60
2023-04-28T09:07:49.305Z,11.90
2023-04-28T09:10:28.225Z,10.80
2023-04-28T09:12:58.749Z,10.48
2023-04-28T09:15:41.804Z,11.10
2023-04-28T09:18:09.934Z,11.75
2023-04-28T09:20:38.465Z,11.15
2023-04-28T09:23:18.733Z,11.32
2023-04-28T09:26:08.685Z,11.27
2023-04-28T09:28:36.809Z,10.90
2023-04-28T09:31:05.539Z,11.77
2023-04-28T09:33:33.262Z,10.80
2023-04-28T09:36:01.328Z,11.80
2023-04-28T09:38:28.770Z,11.85
2023-04-28T09:40:59.161Z,11.13
2023-04-28T09:43:34.612Z,11.45
2023-04-28T09:46:09.006Z,11.48
2023-04-28T09:48:38.669Z,12.00
2023-04-28T09:51:06.800Z,11.95
2023-04-28T09:53:34.372Z,12.15
2023-04-28T09:56:03.613Z,12.30
2023-04-28T09:58:32.251Z,12.85
2023-04-28T10:01:01.385Z,12.25
2023-04-28T10:03:31.265Z,13.07
2023-04-28T10:06:01.273Z,14.05
2023-04-28T10:08:30.160Z,12.65
2023-04-28T10:10:59.669Z,13.38
2023-04-28T10:13:29.439Z,13.20
2023-04-28T10:15:58.818Z,13.00
2023-04-28T10:18:25.906Z,12.93
2023-04-28T10:21:01.079Z,13.95
2023-04-28T10:23:52.902Z,14.32
2023-04-28T10:26:21.946Z,13.57
2023-04-28T10:28:51.073Z,13.25
2023-04-28T10:31:22.166Z,13.50
2023-04-28T10:33:52.339Z,14.00
2023-04-28T10:36:50.807Z,13.45
2023-04-28T10:39:17.496Z,11.85
2023-04-28T10:41:47.642Z,13.18
2023-04-28T10:44:33.094Z,12.90
2023-04-28T10:47:04.557Z,13.13
2023-04-28T10:49:57.664Z,12.35
2023-04-28T10:52:33.579Z,13.30
2023-04-28T10:55:28.991Z,13.18
2023-04-28T10:58:15.891Z,13.73
2023-04-28T11:00:48.207Z,13.55
2023-04-28T11:03:39.540Z,14.27
2023-04-28T11:06:32.564Z,14.75
2023-04-28T11:09:04.104Z,13.95
2023-04-28T11:11:33.541Z,14.18
2023-04-28T11:14:18.597Z,15.02
2023-04-28T11:16:54.203Z,14.45
2023-04-28T11:19:22.126Z,14.23
2023-04-28T11:21:52.387Z,14.88
2023-04-28T11:24:19.088Z,15.32
2023-04-28T11:26:48.866Z,14.50
2023-04-28T11:29:21.290Z,15.05
2023-04-28T11:31:53.950Z,15.68
2023-04-28T11:34:22.216Z,15.23
2023-04-28T11:36:54.897Z,16.48
2023-04-28T11:39:30.311Z,16.02
2023-04-28T11:41:58.361Z,16.08
2023-04-28T11:44:27.572Z,16.52
2023-04-28T11:46:57.364Z,15.65
2023-04-28T11:49:28.963Z,14.50
2023-04-28T11:51:56.329Z,14.85
2023-04-28T11:54:32.490Z,13.88
2023-04-28T11:57:01.166Z,12.70
2023-04-28T11:59:30.043Z,12.25
2023-04-28T12:01:59.412Z,11.85
2023-04-28T12:04:36.449Z,11.68
2023-04-28T12:07:14.384Z,10.95
2023-04-28T12:09:43.897Z,10.20
2023-04-28T12:12:12.954Z,9.75
2023-04-28T12:15:02.590Z,8.70
2023-04-28T12:17:43.188Z,8.00
2023-04-28T12:20:11.932Z,8.88
2023-04-28T12:22:47.013Z,7.72
2023-04-28T12:25:16.753Z,5.97
2023-04-28T12:28:00.634Z,6.40
2023-04-28T12:30:28.270Z,4.45
2023-04-28T12:32:56.136Z,3.30
2023-04-28T12:35:24.782Z,3.90
2023-04-28T12:37:58.622Z,3.75
2023-04-28T12:40:27.534Z,3.47
2023-04-28T12:42:54.201Z,3.42
2023-04-28T12:45:20.870Z,3.75
2023-04-28T12:47:49.904Z,4.00
2023-04-28T12:50:16.779Z,3.45
2023-04-28T12:52:43.668Z,3.35
2023-04-28T12:55:10.522Z,3.60
2023-04-28T12:57:39.466Z,3.25
2023-04-28T13:00:08.370Z,3.05
2023-04-28T13:02:35.313Z,3.00
2023-04-28T13:05:02.994Z,2.97
2023-04-28T13:07:30.569Z,3.20
2023-04-28T13:10:00.289Z,3.28
2023-04-28T13:12:33.496Z,3.30
2023-04-28T13:15:04.166Z,3.20
2023-04-28T13:17:31.557Z,3.40
2023-04-28T13:19:58.226Z,3.35
2023-04-28T13:22:27.271Z,3.33
2023-04-28T13:24:54.173Z,3.47
2023-04-28T13:27:23.339Z,4.10
2023-04-28T13:29:52.201Z,4.15
2023-04-28T13:32:18.896Z,3.72
2023-04-28T13:34:45.641Z,3.72
2023-04-28T13:37:15.217Z,4.05
2023-04-28T13:39:44.274Z,3.75
2023-04-28T13:42:13.282Z,3.58
2023-04-28T13:44:39.988Z,3.75
2023-04-28T13:47:09.213Z,3.55
2023-04-28T13:49:39.929Z,3.53
2023-04-28T13:52:08.857Z,3.75
2023-04-28T13:54:35.553Z,3.90
2023-04-28T13:57:03.075Z,3.47
2023-04-28T13:59:29.731Z,3.95
2023-04-28T14:01:56.340Z,4.03
2023-04-28T14:04:23.343Z,4.57
2023-04-28T14:06:50.631Z,4.55
2023-04-28T14:09:17.617Z,4.35
2023-04-28T14:11:47.689Z,3.88
2023-04-28T14:14:14.527Z,3.40
2023-04-28T14:16:44.103Z,4.13
2023-04-28T14:19:14.095Z,4.35
2023-04-28T14:21:42.644Z,2.50
2023-04-28T14:24:13.550Z,2.22
2023-04-28T14:26:40.528Z,2.15
2023-04-28T14:29:07.803Z,2.17
2023-04-28T14:31:34.779Z,2.30
2023-04-28T14:34:04.440Z,2.47
2023-04-28T14:36:33.887Z,2.03
2023-04-28T14:39:04.723Z,2.38
2023-04-28T14:41:39.194Z,2.60
2023-04-28T14:44:12.048Z,3.47
2023-04-28T14:46:40.826Z,3.50
2023-04-28T14:49:09.452Z,4.03
2023-04-28T14:51:37.497Z,4.00
2023-04-28T14:54:06.043Z,4.43
2023-04-28T14:56:33.947Z,4.60
2023-04-28T14:59:00.882Z,6.10
2023-04-28T15:01:28.302Z,6.20
2023-04-28T15:03:55.389Z,6.43
2023-04-28T15:06:24.702Z,7.25
2023-04-28T15:08:51.438Z,6.28
2023-04-28T15:11:18.795Z,7.10
2023-04-28T15:13:46.983Z,7.03
2023-04-28T15:16:13.714Z,7.38
2023-04-28T15:18:40.514Z,7.32
2023-04-28T15:21:08.839Z,7.45
2023-04-28T15:23:36.172Z,7.55
2023-04-28T15:26:05.040Z,7.30
2023-04-28T15:28:36.805Z,7.95
2023-04-28T15:31:06.398Z,7.70
2023-04-28T15:33:33.984Z,7.75
2023-04-28T15:36:02.065Z,7.60
2023-04-28T15:38:32.623Z,7.38
2023-04-28T15:41:03.488Z,7.63
2023-04-28T15:43:31.348Z,7.53
2023-04-28T15:46:01.675Z,7.57
2023-04-28T15:48:29.393Z,7.03
2023-04-28T15:50:56.968Z,6.97
2023-04-28T15:53:26.443Z,7.90
2023-04-28T15:55:54.202Z,7.10
2023-04-28T15:58:21.665Z,7.30
2023-04-28T16:00:48.492Z,7.40
2023-04-28T16:03:15.317Z,7.18
2023-04-28T16:05:43.404Z,8.10
2023-04-28T16:08:13.124Z,7.32
2023-04-28T16:10:43.047Z,7.10
2023-04-28T16:13:12.609Z,7.15
2023-04-28T16:15:43.213Z,7.10
2023-04-28T16:18:13.868Z,6.47
2023-04-28T16:20:40.646Z,7.20
2023-04-28T16:23:08.003Z,6.60
2023-04-28T16:25:36.396Z,6.90
2023-04-28T16:28:04.510Z,7.10
2023-04-28T16:30:33.286Z,6.88
2023-04-28T16:33:01.060Z,7.30
2023-04-28T16:35:31.547Z,6.80
2023-04-28T16:37:59.470Z,7.28
2023-04-28T16:40:29.428Z,7.25
2023-04-28T16:42:56.147Z,7.15
2023-04-28T16:45:23.638Z,7.22
2023-04-28T16:47:50.341Z,7.22
2023-04-28T16:50:18.358Z,7.35
2023-04-28T16:52:45.894Z,7.10
2023-04-28T16:55:15.364Z,6.75
2023-04-28T16:57:43.514Z,7.18
2023-04-28T17:00:11.976Z,7.35
2023-04-28T17:02:39.943Z,7.60
2023-04-28T17:05:07.470Z,6.45
2023-04-28T17:07:34.164Z,7.13
2023-04-28T17:10:02.900Z,6.97
2023-04-28T17:12:31.004Z,6.45
2023-04-28T17:15:03.270Z,7.25
2023-04-28T17:17:31.527Z,6.75
2023-04-28T17:20:01.893Z,6.45
2023-04-28T17:22:33.879Z,6.47
2023-04-28T17:25:01.844Z,6.03
2023-04-28T17:27:29.966Z,6.35
2023-04-28T17:29:56.766Z,6.95
2023-04-28T17:32:25.493Z,5.88
2023-04-28T17:34:53.747Z,4.95
2023-04-28T17:37:20.697Z,4.90
2023-04-28T17:39:50.182Z,4.65
2023-04-28T17:42:19.393Z,4.95
2023-04-28T17:44:46.029Z,4.68
2023-04-28T17:47:12.640Z,4.38
2023-04-28T17:49:41.970Z,4.70
2023-04-28T17:52:08.519Z,4.90
2023-04-28T17:54:35.308Z,4.57
2023-04-28T17:57:02.519Z,5.28
2023-04-28T17:59:29.133Z,4.35
2023-04-28T18:01:56.448Z,4.13
2023-04-28T18:04:26.372Z,4.18
2023-04-28T18:06:53.010Z,3.85
2023-04-28T18:09:19.536Z,3.53
2023-04-28T18:11:46.714Z,3.42
2023-04-28T18:14:15.466Z,3.00
2023-04-28T18:16:42.295Z,2.95
2023-04-28T18:19:08.953Z,3.05
2023-04-28T18:21:35.517Z,3.42
2023-04-28T18:24:02.318Z,3.40
2023-04-28T18:26:28.875Z,3.65
2023-04-28T18:28:55.626Z,3.67
2023-04-28T18:31:22.387Z,4.22
2023-04-28T18:33:52.674Z,3.70
2023-04-28T18:36:19.253Z,3.28
2023-04-28T18:38:46.075Z,3.65
2023-04-28T18:41:17.269Z,3.90
2023-04-28T18:43:44.305Z,4.28
2023-04-28T18:46:15.828Z,4.32
2023-04-28T18:48:44.795Z,4.75
2023-04-28T18:51:13.798Z,5.03
2023-04-28T18:53:40.643Z,6.60
2023-04-28T18:56:09.560Z,6.03
2023-04-28T18:58:40.893Z,7.55
2023-04-28T19:01:15.472Z,8.05
2023-04-28T19:03:45.057Z,7.85
2023-04-28T19:06:14.789Z,7.25
2023-04-28T19:08:42.846Z,7.22
2023-04-28T19:11:09.650Z,7.18
2023-04-28T19:13:37.779Z,6.72
2023-04-28T19:16:05.257Z,7.68
2023-04-28T19:18:37.108Z,8.05
2023-04-28T19:21:04.729Z,8.20
2023-04-28T19:23:34.700Z,9.07
2023-04-28T19:26:03.680Z,10.02
2023-04-28T19:28:30.793Z,10.57
2023-04-28T19:30:58.244Z,11.10
2023-04-28T19:33:28.559Z,8.18
2023-04-28T19:35:58.501Z,7.35
2023-04-28T19:38:25.243Z,6.95
2023-04-28T19:41:00.741Z,7.32
2023-04-28T19:43:30.772Z,7.68
2023-04-28T19:45:58.111Z,7.88
2023-04-28T19:48:27.381Z,8.20
2023-04-28T19:50:54.485Z,9.18
2023-04-28T19:53:24.218Z,11.13
2023-04-28T19:55:50.885Z,11.10
2023-04-28T19:58:18.382Z,11.25
2023-04-28T20:00:48.063Z,11.77
2023-04-28T20:03:14.966Z,13.18
2023-04-28T20:05:42.368Z,13.13
2023-04-28T20:08:11.184Z,12.98
2023-04-28T20:10:37.986Z,12.85
2023-04-28T20:13:07.035Z,14.70
2023-04-28T20:15:33.646Z,16.67
2023-04-28T20:18:00.516Z,16.45
2023-04-28T20:20:31.956Z,16.20
2023-04-28T20:23:00.858Z,17.50
2023-04-28T20:25:28.065Z,16.65
2023-04-28T20:27:54.694Z,17.48
2023-04-28T20:30:23.596Z,17.50
2023-04-28T20:32:50.395Z,18.40
2023-04-28T20:35:17.722Z,17.85
2023-04-28T20:37:44.368Z,19.33
2023-04-28T20:40:11.809Z,18.40
2023-04-28T20:42:38.536Z,18.63
2023-04-28T20:45:08.322Z,17.25
2023-04-28T20:47:36.496Z,19.58
2023-04-28T20:50:03.754Z,19.95
2023-04-28T20:52:33.080Z,21.15
2023-04-28T20:55:02.671Z,21.33
2023-04-28T20:57:29.697Z,21.10
2023-04-28T20:59:56.519Z,21.20
2023-04-28T21:02:23.551Z,22.13
2023-04-28T21:04:50.423Z,23.10
2023-04-28T21:07:17.751Z,22.90
2023-04-28T21:09:44.662Z,24.00
2023-04-28T21:12:11.673Z,23.63
2023-04-28T21:14:38.601Z,25.63
2023-04-28T21:17:05.391Z,23.02
2023-04-28T21:19:32.558Z,23.73
2023-04-28T21:21:59.676Z,24.02
2023-04-28T21:24:26.409Z,22.83
2023-04-28T21:26:59.850Z,21.80
2023-04-28T21:29:27.822Z,22.60
2023-04-28T21:31:57.136Z,21.50
2023-04-28T21:34:24.057Z,21.52
2023-04-28T21:36:53.092Z,21.10
2023-04-28T21:39:20.007Z,22.02
2023-04-28T21:41:46.906Z,22.50
2023-04-28T21:44:13.689Z,19.45
2023-04-28T21:46:47.817Z,21.23
2023-04-28T21:49:14.615Z,22.98
2023-04-28T21:51:46.076Z,24.05
2023-04-28T21:54:12.816Z,23.50
2023-04-28T21:56:39.689Z,23.88
2023-04-28T21:59:06.496Z,24.90
2023-04-28T22:01:33.379Z,24.35
2023-04-28T22:04:02.616Z,23.65
2023-04-28T22:06:31.546Z,25.88
2023-04-28T22:08:58.411Z,26.75
2023-04-28T22:11:25.541Z,28.58
2023-04-28T22:13:54.946Z,27.55
2023-04-28T22:16:22.229Z,28.05
2023-04-28T22:18:49.165Z,29.67
2023-04-28T22:21:16.138Z,30.58
2023-04-28T22:23:42.859Z,27.05
2023-04-28T22:26:09.749Z,29.33
2023-04-28T22:28:37.552Z,31.52
2023-04-28T22:31:04.356Z,28.85
2023-04-28T22:33:31.109Z,29.67
2023-04-28T22:35:58.123Z,29.30
2023-04-28T22:38:26.360Z,30.65
2023-04-28T22:40:53.378Z,29.17
2023-04-28T22:43:20.197Z,31.27
2023-04-28T22:45:47.030Z,31.15
2023-04-28T22:48:14.466Z,27.63
2023-04-28T22:50:41.556Z,26.75
2023-04-28T22:53:09.633Z,29.33
2023-04-28T22:55:38.909Z,28.27
2023-04-28T22:58:05.991Z,29.52
2023-04-28T23:00:33.176Z,29.33
2023-04-28T23:03:00.809Z,28.60
2023-04-28T23:05:27.731Z,27.23
2023-04-28T23:07:54.488Z,25.92
2023-04-28T23:10:23.728Z,24.90
2023-04-28T23:12:50.560Z,24.42
2023-04-28T23:15:17.509Z,23.10
2023-04-28T23:17:44.603Z,21.33
2023-04-28T23:20:12.054Z,22.20
2023-04-28T23:22:40.954Z,22.83
2023-04-28T23:25:10.569Z,21.02
2023-04-28T23:27:37.465Z,23.17
2023-04-28T23:30:04.689Z,21.58
2023-04-28T23:32:31.485Z,23.90
2023-04-28T23:35:01.166Z,22.17
2023-04-28T23:37:28.102Z,23.27
2023-04-28T23:39:54.916Z,22.83
2023-04-28T23:42:21.706Z,21.98
2023-04-28T23:44:52.915Z,22.05
2023-04-28T23:47:23.034Z,22.83
2023-04-28T23:49:52.848Z,22.30
2023-04-28T23:52:19.646Z,21.55
2023-04-28T23:54:46.583Z,19.23
2023-04-28T23:57:13.627Z,18.75
2023-04-28T23:59:40.474Z,18.00
